sensor_id;sensor_type;location;lat;lon;timestamp;temperature;humidity
36818;DHT22;22761;51.542;16.450;2022-10-16T00:01:27;12.72;91.72
36818;DHT22;22761;51.542;16.450;2022-10-16T00:03:56;12.73;91.43
36818;DHT22;22761;51.542;16.450;2022-10-16T00:06:25;12.79;91.69
36818;DHT22;22761;51.542;16.450;2022-10-16T00:08:53;12.84;91.85
36818;DHT22;22761;51.542;16.450;2022-10-16T00:11:24;12.89;92.01
36818;DHT22;22761;51.542;16.450;2022-10-16T00:13:56;12.95;91.97
36818;DHT22;22761;51.542;16.450;2022-10-16T00:16:24;13.00;91.95
36818;DHT22;22761;51.542;16.450;2022-10-16T00:18:51;13.03;91.98
36818;DHT22;22761;51.542;16.450;2022-10-16T00:21:24;13.07;91.93
36818;DHT22;22761;51.542;16.450;2022-10-16T00:23:59;13.13;91.81
36818;DHT22;22761;51.542;16.450;2022-10-16T00:26:24;13.14;91.61
36818;DHT22;22761;51.542;16.450;2022-10-16T00:28:51;13.17;91.42
36818;DHT22;22761;51.542;16.450;2022-10-16T00:31:21;13.17;91.21
36818;DHT22;22761;51.542;16.450;2022-10-16T00:33:49;13.17;91.07
36818;DHT22;22761;51.542;16.450;2022-10-16T00:36:21;13.17;90.91
36818;DHT22;22761;51.542;16.450;2022-10-16T00:38:55;13.14;90.77
36818;DHT22;22761;51.542;16.450;2022-10-16T00:41:24;13.14;90.70
36818;DHT22;22761;51.542;16.450;2022-10-16T00:43:58;13.08;90.62
36818;DHT22;22761;51.542;16.450;2022-10-16T00:46:38;13.08;90.52
36818;DHT22;22761;51.542;16.450;2022-10-16T00:49:17;13.06;90.43
36818;DHT22;22761;51.542;16.450;2022-10-16T00:51:49;13.04;90.37
36818;DHT22;22761;51.542;16.450;2022-10-16T00:56:51;13.00;90.43
36818;DHT22;22761;51.542;16.450;2022-10-16T00:59:39;12.97;90.49
36818;DHT22;22761;51.542;16.450;2022-10-16T01:02:06;12.99;90.60
36818;DHT22;22761;51.542;16.450;2022-10-16T01:04:42;12.99;90.55
36818;DHT22;22761;51.542;16.450;2022-10-16T01:13:30;13.00;91.15
36818;DHT22;22761;51.542;16.450;2022-10-16T01:18:45;13.06;91.35
36818;DHT22;22761;51.542;16.450;2022-10-16T01:21:19;13.11;91.44
36818;DHT22;22761;51.542;16.450;2022-10-16T01:24:38;13.13;91.46
36818;DHT22;22761;51.542;16.450;2022-10-16T01:27:23;13.15;91.44
36818;DHT22;22761;51.542;16.450;2022-10-16T01:30:02;13.20;91.50
36818;DHT22;22761;51.542;16.450;2022-10-16T01:32:50;13.23;91.54
36818;DHT22;22761;51.542;16.450;2022-10-16T01:35:32;13.31;91.63
36818;DHT22;22761;51.542;16.450;2022-10-16T01:38:16;13.35;91.62
36818;DHT22;22761;51.542;16.450;2022-10-16T01:40:48;13.38;91.53
36818;DHT22;22761;51.542;16.450;2022-10-16T01:43:19;13.43;91.45
36818;DHT22;22761;51.542;16.450;2022-10-16T01:45:48;13.46;91.29
36818;DHT22;22761;51.542;16.450;2022-10-16T01:48:17;13.45;91.09
36818;DHT22;22761;51.542;16.450;2022-10-16T01:50:58;13.49;91.04
36818;DHT22;22761;51.542;16.450;2022-10-16T01:53:25;13.49;90.98
36818;DHT22;22761;51.542;16.450;2022-10-16T01:55:54;13.53;90.95
36818;DHT22;22761;51.542;16.450;2022-10-16T01:58:23;13.56;90.89
36818;DHT22;22761;51.542;16.450;2022-10-16T02:00:52;13.56;90.93
36818;DHT22;22761;51.542;16.450;2022-10-16T02:03:23;13.59;90.91
36818;DHT22;22761;51.542;16.450;2022-10-16T02:05:56;13.60;90.76
36818;DHT22;22761;51.542;16.450;2022-10-16T02:08:28;13.60;90.70
36818;DHT22;22761;51.542;16.450;2022-10-16T02:10:56;13.60;90.58
36818;DHT22;22761;51.542;16.450;2022-10-16T02:13:30;13.60;90.65
36818;DHT22;22761;51.542;16.450;2022-10-16T02:15:56;13.63;90.60
36818;DHT22;22761;51.542;16.450;2022-10-16T02:18:24;13.63;90.60
36818;DHT22;22761;51.542;16.450;2022-10-16T02:21:28;13.68;90.60
36818;DHT22;22761;51.542;16.450;2022-10-16T02:23:50;13.70;90.64
36818;DHT22;22761;51.542;16.450;2022-10-16T02:26:25;13.72;90.64
36818;DHT22;22761;51.542;16.450;2022-10-16T02:28:53;13.73;90.57
36818;DHT22;22761;51.542;16.450;2022-10-16T02:31:29;13.77;90.58
36818;DHT22;22761;51.542;16.450;2022-10-16T02:33:56;13.77;90.51
36818;DHT22;22761;51.542;16.450;2022-10-16T02:36:25;13.82;90.57
36818;DHT22;22761;51.542;16.450;2022-10-16T02:38:53;13.85;90.63
36818;DHT22;22761;51.542;16.450;2022-10-16T02:41:22;13.86;90.60
36818;DHT22;22761;51.542;16.450;2022-10-16T02:43:49;13.89;90.59
36818;DHT22;22761;51.542;16.450;2022-10-16T02:46:18;13.90;90.53
36818;DHT22;22761;51.542;16.450;2022-10-16T02:48:45;13.92;90.48
36818;DHT22;22761;51.542;16.450;2022-10-16T02:51:13;13.93;90.43
36818;DHT22;22761;51.542;16.450;2022-10-16T02:53:40;13.92;90.35
36818;DHT22;22761;51.542;16.450;2022-10-16T02:56:07;13.93;90.31
36818;DHT22;22761;51.542;16.450;2022-10-16T02:58:34;13.96;90.41
36818;DHT22;22761;51.542;16.450;2022-10-16T03:01:01;13.96;90.45
36818;DHT22;22761;51.542;16.450;2022-10-16T03:03:28;13.98;90.49
36818;DHT22;22761;51.542;16.450;2022-10-16T03:05:55;14.00;90.50
36818;DHT22;22761;51.542;16.450;2022-10-16T03:08:23;14.03;90.50
36818;DHT22;22761;51.542;16.450;2022-10-16T03:10:52;14.05;90.44
36818;DHT22;22761;51.542;16.450;2022-10-16T03:13:19;14.05;90.40
36818;DHT22;22761;51.542;16.450;2022-10-16T03:15:47;14.10;90.37
36818;DHT22;22761;51.542;16.450;2022-10-16T03:18:14;14.13;90.33
36818;DHT22;22761;51.542;16.450;2022-10-16T03:20:43;14.14;90.26
36818;DHT22;22761;51.542;16.450;2022-10-16T03:23:10;14.15;90.16
36818;DHT22;22761;51.542;16.450;2022-10-16T03:25:37;14.17;90.03
36818;DHT22;22761;51.542;16.450;2022-10-16T03:28:05;14.18;89.95
36818;DHT22;22761;51.542;16.450;2022-10-16T03:30:32;14.18;89.82
36818;DHT22;22761;51.542;16.450;2022-10-16T03:32:59;14.18;89.79
36818;DHT22;22761;51.542;16.450;2022-10-16T03:35:26;14.21;89.71
36818;DHT22;22761;51.542;16.450;2022-10-16T03:37:54;14.20;89.59
36818;DHT22;22761;51.542;16.450;2022-10-16T03:40:21;14.21;89.49
36818;DHT22;22761;51.542;16.450;2022-10-16T03:42:47;14.17;89.49
36818;DHT22;22761;51.542;16.450;2022-10-16T03:45:14;14.17;89.49
36818;DHT22;22761;51.542;16.450;2022-10-16T03:47:41;14.14;89.39
36818;DHT22;22761;51.542;16.450;2022-10-16T03:50:09;14.14;89.48
36818;DHT22;22761;51.542;16.450;2022-10-16T03:52:36;14.13;89.56
36818;DHT22;22761;51.542;16.450;2022-10-16T03:55:04;14.11;89.69
36818;DHT22;22761;51.542;16.450;2022-10-16T03:57:31;14.11;89.65
36818;DHT22;22761;51.542;16.450;2022-10-16T03:59:58;14.11;89.68
36818;DHT22;22761;51.542;16.450;2022-10-16T04:02:25;14.10;89.70
36818;DHT22;22761;51.542;16.450;2022-10-16T04:04:52;14.08;89.75
36818;DHT22;22761;51.542;16.450;2022-10-16T04:07:19;14.08;89.79
36818;DHT22;22761;51.542;16.450;2022-10-16T04:09:46;14.07;89.83
36818;DHT22;22761;51.542;16.450;2022-10-16T04:12:14;14.10;89.86
36818;DHT22;22761;51.542;16.450;2022-10-16T04:14:40;14.10;90.02
36818;DHT22;22761;51.542;16.450;2022-10-16T04:17:07;14.11;90.04
36818;DHT22;22761;51.542;16.450;2022-10-16T04:19:34;14.13;90.05
36818;DHT22;22761;51.542;16.450;2022-10-16T04:22:02;14.14;90.05
36818;DHT22;22761;51.542;16.450;2022-10-16T04:24:29;14.15;89.96
36818;DHT22;22761;51.542;16.450;2022-10-16T04:26:56;14.17;89.83
36818;DHT22;22761;51.542;16.450;2022-10-16T04:29:24;14.15;89.79
36818;DHT22;22761;51.542;16.450;2022-10-16T04:31:50;14.18;89.75
36818;DHT22;22761;51.542;16.450;2022-10-16T04:34:18;14.20;89.82
36818;DHT22;22761;51.542;16.450;2022-10-16T04:36:47;14.21;89.88
36818;DHT22;22761;51.542;16.450;2022-10-16T04:39:17;14.18;89.88
36818;DHT22;22761;51.542;16.450;2022-10-16T04:41:44;14.21;89.81
36818;DHT22;22761;51.542;16.450;2022-10-16T04:44:11;14.21;89.77
36818;DHT22;22761;51.542;16.450;2022-10-16T04:46:38;14.22;89.81
36818;DHT22;22761;51.542;16.450;2022-10-16T04:49:05;14.22;89.79
36818;DHT22;22761;51.542;16.450;2022-10-16T04:51:32;14.22;89.74
36818;DHT22;22761;51.542;16.450;2022-10-16T04:53:59;14.24;89.77
36818;DHT22;22761;51.542;16.450;2022-10-16T04:56:26;14.25;89.68
36818;DHT22;22761;51.542;16.450;2022-10-16T04:58:53;14.24;89.65
36818;DHT22;22761;51.542;16.450;2022-10-16T05:01:20;14.24;89.61
36818;DHT22;22761;51.542;16.450;2022-10-16T05:03:47;14.21;89.59
36818;DHT22;22761;51.542;16.450;2022-10-16T05:06:14;14.24;89.59
36818;DHT22;22761;51.542;16.450;2022-10-16T05:08:41;14.25;89.66
36818;DHT22;22761;51.542;16.450;2022-10-16T05:11:08;14.24;89.73
36818;DHT22;22761;51.542;16.450;2022-10-16T05:13:35;14.24;89.73
36818;DHT22;22761;51.542;16.450;2022-10-16T05:16:01;14.24;89.79
36818;DHT22;22761;51.542;16.450;2022-10-16T05:18:28;14.24;89.82
36818;DHT22;22761;51.542;16.450;2022-10-16T05:20:55;14.25;89.85
36818;DHT22;22761;51.542;16.450;2022-10-16T05:23:22;14.28;89.82
36818;DHT22;22761;51.542;16.450;2022-10-16T05:25:57;14.28;89.77
36818;DHT22;22761;51.542;16.450;2022-10-16T05:28:26;14.29;89.71
36818;DHT22;22761;51.542;16.450;2022-10-16T05:30:53;14.29;89.69
36818;DHT22;22761;51.542;16.450;2022-10-16T05:33:22;14.28;89.67
36818;DHT22;22761;51.542;16.450;2022-10-16T05:35:49;14.29;89.63
36818;DHT22;22761;51.542;16.450;2022-10-16T05:38:17;14.32;89.68
36818;DHT22;22761;51.542;16.450;2022-10-16T05:40:51;14.31;89.66
36818;DHT22;22761;51.542;16.450;2022-10-16T05:43:19;14.33;89.70
36818;DHT22;22761;51.542;16.450;2022-10-16T05:45:58;14.32;89.71
36818;DHT22;22761;51.542;16.450;2022-10-16T05:48:26;14.35;89.68
36818;DHT22;22761;51.542;16.450;2022-10-16T05:51:02;14.36;89.62
36818;DHT22;22761;51.542;16.450;2022-10-16T05:53:33;14.39;89.57
36818;DHT22;22761;51.542;16.450;2022-10-16T05:56:00;14.41;89.49
36818;DHT22;22761;51.542;16.450;2022-10-16T05:58:36;14.41;89.49
36818;DHT22;22761;51.542;16.450;2022-10-16T06:01:06;14.41;89.40
36818;DHT22;22761;51.542;16.450;2022-10-16T06:03:34;14.47;89.28
36818;DHT22;22761;51.542;16.450;2022-10-16T06:06:16;14.48;89.23
36818;DHT22;22761;51.542;16.450;2022-10-16T06:08:45;14.49;89.18
36818;DHT22;22761;51.542;16.450;2022-10-16T06:11:24;14.52;89.11
36818;DHT22;22761;51.542;16.450;2022-10-16T06:13:53;14.55;89.02
36818;DHT22;22761;51.542;16.450;2022-10-16T06:16:20;14.60;88.91
36818;DHT22;22761;51.542;16.450;2022-10-16T06:18:47;14.66;88.81
36818;DHT22;22761;51.542;16.450;2022-10-16T06:21:22;14.65;88.77
36818;DHT22;22761;51.542;16.450;2022-10-16T06:23:51;14.69;88.58
36818;DHT22;22761;51.542;16.450;2022-10-16T06:26:22;14.70;88.44
36818;DHT22;22761;51.542;16.450;2022-10-16T06:28:50;14.75;88.37
36818;DHT22;22761;51.542;16.450;2022-10-16T06:31:17;14.79;88.26
36818;DHT22;22761;51.542;16.450;2022-10-16T06:33:44;14.82;88.22
36818;DHT22;22761;51.542;16.450;2022-10-16T06:36:15;14.86;88.09
36818;DHT22;22761;51.542;16.450;2022-10-16T06:38:44;14.87;87.98
36818;DHT22;22761;51.542;16.450;2022-10-16T06:41:14;14.97;87.87
36818;DHT22;22761;51.542;16.450;2022-10-16T06:43:42;14.95;87.69
36818;DHT22;22761;51.542;16.450;2022-10-16T06:46:14;15.04;87.57
36818;DHT22;22761;51.542;16.450;2022-10-16T06:48:42;15.08;87.29
36818;DHT22;22761;51.542;16.450;2022-10-16T06:51:12;15.11;87.22
36818;DHT22;22761;51.542;16.450;2022-10-16T06:53:44;15.12;87.16
36818;DHT22;22761;51.542;16.450;2022-10-16T06:56:14;15.18;87.03
36818;DHT22;22761;51.542;16.450;2022-10-16T06:58:42;15.21;86.92
36818;DHT22;22761;51.542;16.450;2022-10-16T07:01:11;15.31;86.85
36818;DHT22;22761;51.542;16.450;2022-10-16T07:03:42;15.39;86.62
36818;DHT22;22761;51.542;16.450;2022-10-16T07:06:12;15.48;86.60
36818;DHT22;22761;51.542;16.450;2022-10-16T07:08:43;15.56;86.45
36818;DHT22;22761;51.542;16.450;2022-10-16T07:11:14;15.65;86.23
36818;DHT22;22761;51.542;16.450;2022-10-16T07:13:44;15.66;86.18
36818;DHT22;22761;51.542;16.450;2022-10-16T07:16:14;15.70;86.21
36818;DHT22;22761;51.542;16.450;2022-10-16T07:18:43;15.74;86.04
36818;DHT22;22761;51.542;16.450;2022-10-16T07:21:19;15.77;86.08
36818;DHT22;22761;51.542;16.450;2022-10-16T07:23:55;15.85;85.94
36818;DHT22;22761;51.542;16.450;2022-10-16T07:26:24;15.91;85.51
36818;DHT22;22761;51.542;16.450;2022-10-16T07:28:52;16.00;85.29
36818;DHT22;22761;51.542;16.450;2022-10-16T07:31:20;16.07;84.96
36818;DHT22;22761;51.542;16.450;2022-10-16T07:33:47;16.21;84.81
36818;DHT22;22761;51.542;16.450;2022-10-16T07:36:17;16.32;84.44
36818;DHT22;22761;51.542;16.450;2022-10-16T07:38:45;16.49;84.11
36818;DHT22;22761;51.542;16.450;2022-10-16T07:41:15;16.63;83.82
36818;DHT22;22761;51.542;16.450;2022-10-16T07:43:54;16.74;83.30
36818;DHT22;22761;51.542;16.450;2022-10-16T07:46:21;16.87;83.16
36818;DHT22;22761;51.542;16.450;2022-10-16T07:48:49;17.01;82.80
36818;DHT22;22761;51.542;16.450;2022-10-16T07:51:19;17.09;82.48
36818;DHT22;22761;51.542;16.450;2022-10-16T07:53:47;17.15;82.02
36818;DHT22;22761;51.542;16.450;2022-10-16T07:56:16;17.14;82.00
36818;DHT22;22761;51.542;16.450;2022-10-16T07:58:45;17.15;81.72
36818;DHT22;22761;51.542;16.450;2022-10-16T08:01:15;17.12;81.71
36818;DHT22;22761;51.542;16.450;2022-10-16T08:03:45;17.07;81.95
36818;DHT22;22761;51.542;16.450;2022-10-16T08:06:13;17.09;81.82
36818;DHT22;22761;51.542;16.450;2022-10-16T08:08:40;17.12;81.92
36818;DHT22;22761;51.542;16.450;2022-10-16T08:11:08;17.18;81.84
36818;DHT22;22761;51.542;16.450;2022-10-16T08:13:36;17.25;81.71
36818;DHT22;22761;51.542;16.450;2022-10-16T08:16:05;17.37;80.97
36818;DHT22;22761;51.542;16.450;2022-10-16T08:18:39;17.49;80.74
36818;DHT22;22761;51.542;16.450;2022-10-16T08:21:15;17.57;80.75
36818;DHT22;22761;51.542;16.450;2022-10-16T08:23:43;17.64;79.55
36818;DHT22;22761;51.542;16.450;2022-10-16T08:26:12;17.69;79.44
36818;DHT22;22761;51.542;16.450;2022-10-16T08:28:39;17.71;79.51
36818;DHT22;22761;51.542;16.450;2022-10-16T08:31:13;17.76;79.59
36818;DHT22;22761;51.542;16.450;2022-10-16T08:33:44;17.84;79.33
36818;DHT22;22761;51.542;16.450;2022-10-16T08:36:13;17.97;79.23
36818;DHT22;22761;51.542;16.450;2022-10-16T08:38:41;18.09;79.54
36818;DHT22;22761;51.542;16.450;2022-10-16T08:47:40;18.62;77.21
36818;DHT22;22761;51.542;16.450;2022-10-16T08:50:14;18.75;76.21
36818;DHT22;22761;51.542;16.450;2022-10-16T08:52:44;18.94;76.05
36818;DHT22;22761;51.542;16.450;2022-10-16T08:55:37;19.06;75.84
36818;DHT22;22761;51.542;16.450;2022-10-16T08:58:15;19.27;75.38
36818;DHT22;22761;51.542;16.450;2022-10-16T09:00:51;19.46;75.14
36818;DHT22;22761;51.542;16.450;2022-10-16T09:09:44;19.95;72.78
36818;DHT22;22761;51.542;16.450;2022-10-16T09:12:38;20.12;72.85
36818;DHT22;22761;51.542;16.450;2022-10-16T09:15:35;20.30;72.10
36818;DHT22;22761;51.542;16.450;2022-10-16T09:23:57;20.79;69.77
36818;DHT22;22761;51.542;16.450;2022-10-16T09:26:23;20.96;69.77
36818;DHT22;22761;51.542;16.450;2022-10-16T09:28:53;21.23;68.68
36818;DHT22;22761;51.542;16.450;2022-10-16T09:31:22;21.40;68.16
36818;DHT22;22761;51.542;16.450;2022-10-16T09:33:59;21.56;66.15
36818;DHT22;22761;51.542;16.450;2022-10-16T09:36:29;21.67;66.21
36818;DHT22;22761;51.542;16.450;2022-10-16T09:39:08;21.79;65.75
36818;DHT22;22761;51.542;16.450;2022-10-16T09:41:39;21.92;65.74
36818;DHT22;22761;51.542;16.450;2022-10-16T09:44:29;22.02;65.24
36818;DHT22;22761;51.542;16.450;2022-10-16T09:47:15;22.09;65.65
36818;DHT22;22761;51.542;16.450;2022-10-16T09:49:54;22.26;63.77
36818;DHT22;22761;51.542;16.450;2022-10-16T09:52:22;22.29;63.90
36818;DHT22;22761;51.542;16.450;2022-10-16T09:55:00;22.19;64.34
36818;DHT22;22761;51.542;16.450;2022-10-16T09:57:27;22.13;63.88
36818;DHT22;22761;51.542;16.450;2022-10-16T09:59:58;22.08;64.16
36818;DHT22;22761;51.542;16.450;2022-10-16T10:02:35;22.17;64.91
36818;DHT22;22761;51.542;16.450;2022-10-16T10:05:06;22.40;63.81
36818;DHT22;22761;51.542;16.450;2022-10-16T10:07:39;22.65;63.60
36818;DHT22;22761;51.542;16.450;2022-10-16T10:10:20;23.03;62.90
36818;DHT22;22761;51.542;16.450;2022-10-16T10:12:39;23.36;61.84
36818;DHT22;22761;51.542;16.450;2022-10-16T10:15:12;23.60;61.27
36818;DHT22;22761;51.542;16.450;2022-10-16T10:17:56;23.72;60.38
36818;DHT22;22761;51.542;16.450;2022-10-16T10:20:34;23.98;60.43
36818;DHT22;22761;51.542;16.450;2022-10-16T10:23:24;24.34;59.19
36818;DHT22;22761;51.542;16.450;2022-10-16T10:26:13;24.26;58.19
36818;DHT22;22761;51.542;16.450;2022-10-16T10:29:17;23.84;58.93
36818;DHT22;22761;51.542;16.450;2022-10-16T10:34:50;23.38;60.79
36818;DHT22;22761;51.542;16.450;2022-10-16T10:43:42;23.12;60.47
36818;DHT22;22761;51.542;16.450;2022-10-16T10:46:35;22.95;61.13
36818;DHT22;22761;51.542;16.450;2022-10-16T10:49:16;22.96;60.60
36818;DHT22;22761;51.542;16.450;2022-10-16T10:52:31;23.16;60.94
36818;DHT22;22761;51.542;16.450;2022-10-16T11:04:23;24.19;57.73
36818;DHT22;22761;51.542;16.450;2022-10-16T11:06:57;24.06;57.92
36818;DHT22;22761;51.542;16.450;2022-10-16T11:09:34;23.92;58.38
36818;DHT22;22761;51.542;16.450;2022-10-16T11:12:24;23.78;58.83
36818;DHT22;22761;51.542;16.450;2022-10-16T11:18:06;23.37;59.33
36818;DHT22;22761;51.542;16.450;2022-10-16T11:20:47;23.16;59.91
36818;DHT22;22761;51.542;16.450;2022-10-16T11:23:28;22.96;60.63
36818;DHT22;22761;51.542;16.450;2022-10-16T11:26:00;22.82;61.31
36818;DHT22;22761;51.542;16.450;2022-10-16T11:28:51;22.75;62.02
36818;DHT22;22761;51.542;16.450;2022-10-16T11:31:36;22.68;61.86
36818;DHT22;22761;51.542;16.450;2022-10-16T11:36:58;22.72;62.13
36818;DHT22;22761;51.542;16.450;2022-10-16T11:39:26;22.72;62.40
36818;DHT22;22761;51.542;16.450;2022-10-16T11:42:03;22.74;62.62
36818;DHT22;22761;51.542;16.450;2022-10-16T11:47:37;22.75;62.32
36818;DHT22;22761;51.542;16.450;2022-10-16T11:50:40;22.78;62.64
36818;DHT22;22761;51.542;16.450;2022-10-16T11:56:17;23.02;62.65
36818;DHT22;22761;51.542;16.450;2022-10-16T12:01:32;23.20;61.53
36818;DHT22;22761;51.542;16.450;2022-10-16T12:04:32;23.32;61.02
36818;DHT22;22761;51.542;16.450;2022-10-16T12:07:10;23.37;60.68
36818;DHT22;22761;51.542;16.450;2022-10-16T12:09:40;23.43;59.71
36818;DHT22;22761;51.542;16.450;2022-10-16T12:12:38;23.47;57.93
36818;DHT22;22761;51.542;16.450;2022-10-16T12:15:26;23.53;58.42
36818;DHT22;22761;51.542;16.450;2022-10-16T12:17:54;23.61;58.21
36818;DHT22;22761;51.542;16.450;2022-10-16T12:20:32;23.61;57.63
36818;DHT22;22761;51.542;16.450;2022-10-16T12:23:06;23.68;58.04
36818;DHT22;22761;51.542;16.450;2022-10-16T12:25:37;23.78;57.74
36818;DHT22;22761;51.542;16.450;2022-10-16T12:28:26;23.85;57.33
36818;DHT22;22761;51.542;16.450;2022-10-16T12:31:01;23.84;57.34
36818;DHT22;22761;51.542;16.450;2022-10-16T12:33:33;23.71;57.51
36818;DHT22;22761;51.542;16.450;2022-10-16T12:36:05;23.61;57.39
36818;DHT22;22761;51.542;16.450;2022-10-16T12:38:49;23.44;57.82
36818;DHT22;22761;51.542;16.450;2022-10-16T12:41:31;23.25;58.52
36818;DHT22;22761;51.542;16.450;2022-10-16T12:43:59;23.10;59.55
36818;DHT22;22761;51.542;16.450;2022-10-16T12:46:34;22.95;60.01
36818;DHT22;22761;51.542;16.450;2022-10-16T12:51:43;22.67;61.10
36818;DHT22;22761;51.542;16.450;2022-10-16T12:54:22;22.54;61.23
36818;DHT22;22761;51.542;16.450;2022-10-16T13:05:39;23.44;60.25
36818;DHT22;22761;51.542;16.450;2022-10-16T13:08:39;23.88;59.11
36818;DHT22;22761;51.542;16.450;2022-10-16T13:11:15;24.37;57.47
36818;DHT22;22761;51.542;16.450;2022-10-16T13:17:06;24.48;55.37
36818;DHT22;22761;51.542;16.450;2022-10-16T13:19:42;24.36;56.88
36818;DHT22;22761;51.542;16.450;2022-10-16T13:25:37;24.61;56.03
36818;DHT22;22761;51.542;16.450;2022-10-16T13:28:11;24.89;56.20
36818;DHT22;22761;51.542;16.450;2022-10-16T13:30:51;25.03;55.47
36818;DHT22;22761;51.542;16.450;2022-10-16T13:36:04;24.92;55.81
36818;DHT22;22761;51.542;16.450;2022-10-16T13:38:34;24.95;54.94
36818;DHT22;22761;51.542;16.450;2022-10-16T13:41:17;24.92;55.16
36818;DHT22;22761;51.542;16.450;2022-10-16T13:43:49;24.92;55.18
36818;DHT22;22761;51.542;16.450;2022-10-16T13:46:21;25.05;54.68
36818;DHT22;22761;51.542;16.450;2022-10-16T13:49:04;25.10;55.23
36818;DHT22;22761;51.542;16.450;2022-10-16T13:51:32;25.16;55.30
36818;DHT22;22761;51.542;16.450;2022-10-16T13:54:00;25.22;55.41
36818;DHT22;22761;51.542;16.450;2022-10-16T13:56:31;25.33;53.90
36818;DHT22;22761;51.542;16.450;2022-10-16T13:59:26;25.43;54.28
36818;DHT22;22761;51.542;16.450;2022-10-16T14:01:56;25.65;53.39
36818;DHT22;22761;51.542;16.450;2022-10-16T14:04:28;25.78;53.59
36818;DHT22;22761;51.542;16.450;2022-10-16T14:06:56;25.82;53.35
36818;DHT22;22761;51.542;16.450;2022-10-16T14:09:27;25.81;53.24
36818;DHT22;22761;51.542;16.450;2022-10-16T14:12:01;25.71;53.49
36818;DHT22;22761;51.542;16.450;2022-10-16T14:14:34;25.45;54.31
36818;DHT22;22761;51.542;16.450;2022-10-16T14:17:02;25.26;54.77
36818;DHT22;22761;51.542;16.450;2022-10-16T14:19:31;25.06;54.53
36818;DHT22;22761;51.542;16.450;2022-10-16T14:22:00;24.95;55.32
36818;DHT22;22761;51.542;16.450;2022-10-16T14:24:33;24.82;56.08
36818;DHT22;22761;51.542;16.450;2022-10-16T14:27:20;24.89;55.43
36818;DHT22;22761;51.542;16.450;2022-10-16T14:29:33;24.95;55.62
36818;DHT22;22761;51.542;16.450;2022-10-16T14:32:05;24.85;55.95
36818;DHT22;22761;51.542;16.450;2022-10-16T14:34:36;24.70;56.97
36818;DHT22;22761;51.542;16.450;2022-10-16T14:37:26;24.51;56.76
36818;DHT22;22761;51.542;16.450;2022-10-16T14:39:54;24.32;57.13
36818;DHT22;22761;51.542;16.450;2022-10-16T14:42:24;24.13;57.80
36818;DHT22;22761;51.542;16.450;2022-10-16T14:44:53;24.03;57.80
36818;DHT22;22761;51.542;16.450;2022-10-16T14:47:24;23.87;58.06
36818;DHT22;22761;51.542;16.450;2022-10-16T14:49:54;23.69;58.64
36818;DHT22;22761;51.542;16.450;2022-10-16T14:52:23;23.53;58.84
36818;DHT22;22761;51.542;16.450;2022-10-16T14:54:51;23.38;59.48
36818;DHT22;22761;51.542;16.450;2022-10-16T14:57:24;23.20;59.82
36818;DHT22;22761;51.542;16.450;2022-10-16T14:59:52;23.07;60.42
36818;DHT22;22761;51.542;16.450;2022-10-16T15:02:34;23.02;60.65
36818;DHT22;22761;51.542;16.450;2022-10-16T15:05:14;22.91;61.07
36818;DHT22;22761;51.542;16.450;2022-10-16T15:07:41;22.78;61.69
36818;DHT22;22761;51.542;16.450;2022-10-16T15:10:08;22.75;61.75
36818;DHT22;22761;51.542;16.450;2022-10-16T15:12:36;22.64;62.06
36818;DHT22;22761;51.542;16.450;2022-10-16T15:15:31;22.58;61.90
36818;DHT22;22761;51.542;16.450;2022-10-16T15:17:57;22.39;62.24
36818;DHT22;22761;51.542;16.450;2022-10-16T15:20:33;22.23;62.58
36818;DHT22;22761;51.542;16.450;2022-10-16T15:23:03;22.08;63.02
36818;DHT22;22761;51.542;16.450;2022-10-16T15:25:49;22.01;63.28
36818;DHT22;22761;51.542;16.450;2022-10-16T15:28:16;21.94;64.23
36818;DHT22;22761;51.542;16.450;2022-10-16T15:30:44;21.85;63.93
36818;DHT22;22761;51.542;16.450;2022-10-16T15:33:16;21.74;63.98
36818;DHT22;22761;51.542;16.450;2022-10-16T15:35:51;21.69;64.51
36818;DHT22;22761;51.542;16.450;2022-10-16T15:38:21;21.58;65.14
36818;DHT22;22761;51.542;16.450;2022-10-16T15:40:49;21.50;66.41
36818;DHT22;22761;51.542;16.450;2022-10-16T15:43:17;21.41;66.84
36818;DHT22;22761;51.542;16.450;2022-10-16T15:46:01;21.29;67.60
36818;DHT22;22761;51.542;16.450;2022-10-16T15:48:29;21.13;67.61
36818;DHT22;22761;51.542;16.450;2022-10-16T15:50:57;21.01;68.12
36818;DHT22;22761;51.542;16.450;2022-10-16T15:53:24;20.88;68.66
36818;DHT22;22761;51.542;16.450;2022-10-16T15:55:52;20.72;68.44
36818;DHT22;22761;51.542;16.450;2022-10-16T15:58:19;20.60;69.57
36818;DHT22;22761;51.542;16.450;2022-10-16T16:00:56;20.46;69.92
36818;DHT22;22761;51.542;16.450;2022-10-16T16:03:23;20.32;70.35
36818;DHT22;22761;51.542;16.450;2022-10-16T16:05:50;20.22;70.88
36818;DHT22;22761;51.542;16.450;2022-10-16T16:08:17;20.09;71.05
36818;DHT22;22761;51.542;16.450;2022-10-16T16:10:59;19.98;71.67
36818;DHT22;22761;51.542;16.450;2022-10-16T16:13:28;19.84;71.73
36818;DHT22;22761;51.542;16.450;2022-10-16T16:15:55;19.71;72.55
36818;DHT22;22761;51.542;16.450;2022-10-16T16:18:23;19.58;72.79
36818;DHT22;22761;51.542;16.450;2022-10-16T16:20:52;19.46;72.91
36818;DHT22;22761;51.542;16.450;2022-10-16T16:23:25;19.33;73.56
36818;DHT22;22761;51.542;16.450;2022-10-16T16:26:16;19.22;73.60
36818;DHT22;22761;51.542;16.450;2022-10-16T16:28:43;19.02;73.70
36818;DHT22;22761;51.542;16.450;2022-10-16T16:31:11;18.90;74.04
36818;DHT22;22761;51.542;16.450;2022-10-16T16:33:38;18.77;74.51
36818;DHT22;22761;51.542;16.450;2022-10-16T16:36:06;18.63;74.53
36818;DHT22;22761;51.542;16.450;2022-10-16T16:38:34;18.54;75.41
36818;DHT22;22761;51.542;16.450;2022-10-16T16:41:20;18.42;75.25
36818;DHT22;22761;51.542;16.450;2022-10-16T16:43:45;18.29;75.34
36818;DHT22;22761;51.542;16.450;2022-10-16T16:46:15;18.22;76.04
36818;DHT22;22761;51.542;16.450;2022-10-16T16:48:42;18.12;76.50
36818;DHT22;22761;51.542;16.450;2022-10-16T16:51:15;18.04;76.68
36818;DHT22;22761;51.542;16.450;2022-10-16T16:53:48;17.95;77.24
36818;DHT22;22761;51.542;16.450;2022-10-16T16:56:18;17.91;77.13
36818;DHT22;22761;51.542;16.450;2022-10-16T16:58:48;17.81;76.79
36818;DHT22;22761;51.542;16.450;2022-10-16T17:01:17;17.74;77.60
36818;DHT22;22761;51.542;16.450;2022-10-16T17:03:47;17.67;78.03
36818;DHT22;22761;51.542;16.450;2022-10-16T17:06:16;17.60;78.83
36818;DHT22;22761;51.542;16.450;2022-10-16T17:08:44;17.57;79.17
36818;DHT22;22761;51.542;16.450;2022-10-16T17:11:14;17.53;79.27